LSMA 282220Z AUTO 00000KT 4300NDV -RASN BR SCT002 BKN013 OVC032 00/M00 Q0999 RMK EDAC 282220Z AUTO 23006KT 9999 // OVC067/// 00/M01 Q0998 ETHA 282220Z AUTO 23003KT 9999 // ////// M02/M03 Q0997 /// LFLP 282230Z AUTO 24001KT 3100 -SN BR BKN004 BKN008 OVC013 00/00 Q1001 LEAS 282230Z 28023KT 250V330 5000 RA FEW004 BKN014 BKN020 12/11 Q1017 TEMPO 3000 BKN010 EDMA 282220Z AUTO 36002KT 3000 FEW052/// BKN061/// OVC073/// M01/M01 Q0998 EHMA 282225Z AUTO 33023KT 9999 FEW041 SCT046 06/M02 Q0999 LFSB 282230Z AUTO 27006KT 9999 -RA BKN028 BKN039 BKN046 02/01 Q1000 TEMPO 1200 -SN OVC004 EGAC 282220Z AUTO 14003KT 100V180 9999 NCD 03/M01 Q1013 EGAA 282220Z AUTO VRB01KT 9999 NCD 00/M01 Q1013 LIME 282220Z 05003KT 010V090 CAVOK 01/00 Q0993 NOSIG EDDB 282220Z 19004KT 150V220 4600 BR SCT001 BKN010 00/M00 Q0997 TEMPO BKN008 LSZB 282220Z AUTO 25009KT 5000 -SN SCT036 BKN040 BKN045 01/M01 Q0999 EBLG 282220Z 30006KT 2500 BR BKN002 00/00 Q1003 TEMPO 4000 BR BKN003 LIPE 282220Z 22007KT CAVOK 03/M00 Q0994 LIPB 282150Z 00000KT 9999 BKN100 03/01 Q0994 RMK MON INVIS EDVE 282220Z AUTO 26006KT 9999 // SCT011/// BKN018/// OVC023/// 02/01 Q0998 EDDW 282220Z 26006KT 9999 BKN008 03/02 Q0997 LIPO 282220Z AUTO VRB02KT //// // NCD 01/01 Q0994 ETHB 282220Z 27007KT 9999 FEW005 SCT008 BKN030 02/02 Q0998 BLU ETSB 282220Z AUTO 33009KT 9999 // ////// 00/M01 Q0999 /// LSZC 282220Z AUTO VRB02KT 7000 -SN BKN023 BKN026 01/00 Q0999 LFMD 282230Z AUTO 34001KT CAVOK 02/M03 Q0994 LIMU 282155Z 02010KT CAVOK 09/M04 Q0993 RMK SKC QUK / QUL / VIS MAR 30 KM VIS MIN 9999 EIME 282200Z 25004KT 9999 FEW010 BKN160 01/01 Q1013 ETHC 282220Z 24004KT 4500 BR SCT008 BKN012 03/02 Q0998 GRN LIPC 282155Z 23005KT CAVOK 02/01 Q0994 RMK SKC VIS MIN 9999 WIND THR11 23004KT WIND THR29 20004KT BLU LFLB 282230Z AUTO 10002KT 6000 -SNRA FEW009 BKN018 OVC026 01/01 Q1002 LIVC 282215Z AUTO 27019G30KT 210V340 ///// 01/00 Q0989 LFGA 282230Z AUTO VRB02KT 9999 -RA BKN043 OVC049 02/01 Q1001 EICK 282230Z 01006KT 9999 SCT007 BKN024 07/07 Q1014 NOSIG EGDR 282150Z AUTO 35003KT 9999 BKN039/// 07/06 Q1011 REDZ EHDL 282225Z AUTO VRB01KT 9999 FEW000 BKN036 BKN041 M02/M02 Q1002 BLU LFSD 282230Z AUTO 33007KT 9999 -RA BKN013 BKN026 OVC036 02/00 Q1003 LFGJ 282230Z AUTO 31009KT 9999 -SNRA BKN008 BKN013 BKN023 02/01 Q1002 EDLW 282220Z AUTO 26007KT 9999 // BKN005/// BKN041/// OVC047/// 02/01 Q1000 EDDC 282220Z 28003KT 9999 SCT018 00/M01 Q0997 LSMD 282220Z AUTO 30003KT 2500NDV -SN VV004 00/M00 Q0999 RMK EIDW 282230Z 29007KT 9999 FEW010 SCT090 BKN160 02/02 Q1013 NOSIG EDDL 282220Z VRB02KT 8000 SCT007 00/M00 Q1001 NOSIG EHEH 282225Z AUTO 28004KT 230V320 9999 SCT056 SCT062 00/M01 Q1003 BLU EDWE 282220Z AUTO 33004KT 290V360 9999 // FEW018/// BKN030/// BKN062/// 04/02 Q0999 LSME 282220Z AUTO VRB02KT 9999NDV -RA FEW031 SCT055 OVC073 02/00 Q0999 RMK LFSG 282230Z AUTO 29007KT 9999 FEW021 SCT064 BKN100 01/M01 Q1001 EDDE 282220Z 24006KT 9999 -SN FEW023 M00/M01 Q0998 LIPY 282220Z AUTO 19003KT 9999 ///////// 05/01 Q0995 ETHS 282220Z 24004KT 4000 BR BKN002 02/02 Q0997 AMB LIPF 281755Z 20002KT CAVOK 05/05 Q0992 RMK SKC VIS MIN 9999 LIRQ 282220Z 19005KT CAVOK 04/02 Q0995 LIPK 282150Z VRB03KT CAVOK 01/M04 Q0994 EDDF 282220Z 27004KT CAVOK 01/00 Q1000 NOSIG EDNY 282220Z AUTO VRB02KT 9999 // SCT031/// BKN035/// OVC040/// M00/M00 Q0998 ETHF 282220Z VRB01KT 9999 -DZ FEW017 BKN040 BKN053 01/00 Q0999 BLU LIVF 282155Z 15008KT 9999 FEW025 04/M03 Q0993 RMK SCT SCT080 MON S W CLD SCT NC VAL NIL VIS MIN 9999 ETNG 282150Z 27006KT 8000 FEW042 01/01 Q1002 EHHW 282225Z AUTO 34028KT 9999 FEW019/// SCT030/// BKN039/// 06/00 Q0999 REDZ LSGG 282220Z 25004KT 9000 -SN FEW002 SCT005 BKN040 00/M00 Q1001 TEMPO 4500 SN LIMJ 282220Z 04005KT 010V070 CAVOK 07/M04 Q0994 LIPL 282155Z 20002KT CAVOK 02/02 Q0992 RMK SKC VIS MIN 9999 WIND THR31 22004KT WIND THR13 22002KT BLU ETIC 282242Z COR 30003KT 9999 FEW018 OVC060 00/M01 A2945 RMK AO2 SLP995 $ COR 2248 LSZG 282220Z AUTO 24008KT 9999 -SN BKN/// 02/M01 Q0999 LFLS 282230Z AUTO 28006KT 3800 -SN BR SCT005 OVC012 00/00 Q1002 EHGG 282225Z AUTO 30007KT 270V330 9999 NSC 02/M02 Q1000 EDFH 282220Z 28006KT 6000 -SN BKN002 M00/M00 Q0999 EDHI 282220Z AUTO 04003KT 5000 // OVC007/// 02/02 Q0997 EDDH 282220Z VRB02KT 0350 R23/0800N R15/0650N FZFG VV/// M01/M01 Q0998 TEMPO 0900 EDDV 282220Z 28004KT 250V310 9999 BKN007 03/02 Q0998 EDQM 282220Z AUTO VRB02KT 5000 // FEW030/// SCT044/// BKN054/// M02/M03 Q0996 ETIH 282241Z AUTO 00000KT 9000 BR BKN015 OVC065 M00/M02 A2946 RMK AO2 FZDZE2156FZDZB27 SLP999 $ ETNH 282220Z AUTO 28003KT 0150 // ////// M01/M01 Q0997 /// ETSH 282220Z 15001KT 3500 BCFG BR SCT023 BKN060 M04/M04 Q0997 YLO LFTH 282230Z AUTO 30015KT 240V340 CAVOK 07/M02 Q0997 BECMG 30015G30KT ETIK 282156Z AUTO 24003KT 6000 BR SCT009 SCT014 BKN026 BKN075 M01/M01 A2949 RMK AO2 CIG 009V026 BKN026 V OVC SLP006 T10071007 ETSI 282220Z AUTO 31002KT 8000 // ////// 00/M00 Q0998 /// LOWI 282220Z AUTO VRB02KT 5000 -SN FEW004 BKN020 M00/M01 Q0997 LIPS 282155Z 00000KT 9999 BKN025 05/04 Q0992 RMK BKN VIS MIN 9999 WIND THR26 00000KT WIND THR08 00000KT BLK BLU LKKV 282200Z 29003KT 250V320 6000 -SN SCT004 SCT018 M01/M02 Q0995 EDSB 282220Z 31003KT 260V350 8000 -RA SCT009 BKN013 OVC030 02/01 Q1000 RERA EDVK 281850Z 24004KT 9999 FEW017 BKN024 01/M01 Q0997 ETEB 282231Z AUTO 00000KT 8000 BR SCT005 BKN014 M01/M01 A2947 RMK AO2 FZDZB07E16 CIG 004V014 SLP019 $ LKKB 282200Z 31003KT 9999 SCT030 M00/M02 Q0996 EIKY 281930Z 30004KT 240V340 9999 SCT016 10/09 Q1014 EDHK 282220Z AUTO 27007KT 1200 R26/1800U // VV/// 00/M00 Q0997 LOWK 282220Z AUTO 27003KT 230V310 4500 -SN BR SCT003 BKN007 01/00 Q0994 TEMPO 2000 SN BKN003 EBBL 282225Z AUTO 27005KT 8000 NCD M00/M01 Q1003 BLU EDDK 282220Z 32007KT 9999 FEW007 BKN011 BKN025 03/01 Q1001 BECMG SCT011 LECO 282230Z 33012G23KT 270V010 8000 -DZ FEW009 BKN028 11/10 Q1021 RERA TEMPO 3000 RA BKN010 ETNL 282220Z 22002KT 9000 SCT004 BKN008 02/02 Q0997 GRN ETHL 282220Z 21002KT 9999 BKN030 M01/M02 Q0998 BLU LFMC 282230Z AUTO 30018G31KT CAVOK 06/M02 Q0996 ETSL 282220Z VRB03KT 9999 FEW030 BKN060 M01/M02 Q0997 BLU EHLW 282225Z AUTO 34013KT 9999 FEW046 BKN050 BKN055 04/M01 Q1001 BLU EDDP 282220Z 25006KT 9999 FEW031 M00/M02 Q0997 NOSIG EHLE 282225Z AUTO 26006KT 9999 NSC 00/M02 Q1002 LSGC 282220Z AUTO 30003KT 200V010 9999 -SN BKN006 M03/M05 Q0998 LIMZ 282220Z AUTO 24005KT 9999 BKN200/// 01/M05 Q0994 LOWL 282220Z AUTO VRB02KT 5000 BR FEW002 SCT003 BKN070 M01/M01 Q0998 LJLJ 282230Z 30004KT 280V340 1500 -SN BR SCT003 OVC015 00/00 Q0993 RESN NOSIG LSZL 282220Z AUTO 04004KT 010V080 9999NDV NCD M01/M03 Q0995 RMK EDHL 282220Z AUTO 27003KT 240V300 2300 1400 R25/P2000N // SCT000/// BKN003/// 00/00 Q0998 LSZA 282220Z AUTO VRB01KT 9999 NCD M01/M02 Q0995 ELLX 282220Z 34008KT 8000 -SHGS SCT024 BKN030 01/M00 Q1001 NOSIG LFSX 282230Z AUTO 30004KT 7000 ////// 01/00 Q1001 LFLL 282230Z 31010KT 9999 BKN009 BKN026 02/01 Q1003 NOSIG EDFM 281850Z 34004KT 260V020 9999 SCT008 OVC015 03/02 Q0999 LFML 282230Z AUTO 32011KT CAVOK 05/01 Q1001 NOSIG ETGG 282220Z AUTO 34006KT 9999 // ////// 02/01 Q0997 /// LSMM 282220Z AUTO 31010KT 280V360 3700NDV -SN FEW009 BKN011 OVC015 00/00 Q0998 RMK EDJA 282220Z AUTO 26005KT 9999 // SCT041/// BKN083/// M02/M03 Q0997 ETWM 282220Z AUTO 23005KT //// // ////// 01/01 Q0999 /// LFJL 282230Z AUTO 31005KT 8000 BKN020 OVC064 01/00 Q1002 TEMPO 1500 -SN OVC003 LIML 282220Z AUTO 31005KT 280V340 9999 NCD 04/M02 Q0994 LIMC 282220Z 36008KT CAVOK M00/M01 Q0994 NOSIG EDLN 282220Z AUTO 28004KT 240V300 9999 // NCD 01/00 Q1002 EDDG 282220Z 25004KT 9999 FEW030 01/01 Q1000 NOSIG EDDM 282220Z 27003KT 9999 -SN SCT044 M00/M01 Q0998 NOSIG LFSN 282230Z AUTO 28004KT 250V310 CAVOK 02/00 Q1002 LFSO 282230Z AUTO 31006KT 5000 BR SCT010 BKN021 OVC058 00/00 Q1001 ETSN 282220Z 32001KT 6000 FEW020 BKN070 M01/M01 Q0998 WHT LFMN 282230Z 01008KT 330V040 CAVOK 08/M06 Q0994 NOSIG EDLV 282220Z 29004KT CAVOK 00/M01 Q1002 ETHN 282220Z 29005KT 2500 BR VV001 M01/M01 Q0998 RED ETNN 282220Z 26007KT 9999 SCT005 BKN010 02/01 Q1001 GRN ETMN 282220Z 06007KT 0500 R08////// FG BKN001 01/01 Q0998 RED EDDN 282220Z VRB02KT 8000 SCT008 BKN016 00/00 Q0998 EDMO 282220Z AUTO 23003KT 9999 // SCT011/// SCT056/// OVC076/// M01/M02 Q0997 EDLP 282220Z 28006KT 210V330 7000 DZ OVC004 01/00 Q0999 LIVP 282155Z 36025KT 9999 OVC050 M11/M12 Q0986 RMK OVC MON LIB VAL NIL VIS MIN 9999 LIMP 282150Z 23005KT 8000 NSC 02/00 Q0994 LSMP 282220Z AUTO 30004KT 260V330 9999NDV SCT028 OVC033 03/M02 Q1000 RMK LIRZ 282220Z AUTO 15005KT 120V180 9999 -DZRA FEW037/// BKN052/// 06/04 Q0996 LIMS 281755Z 24003KT CAVOK 05/05 Q0992 RMK FEW FEW100 VIS MIN 9999 WIND THR30 20004KT BLU LIMH 282155Z 04026KT 0200 -SN FZFG VV/// M20/M23 Q0984 RMK MON INVIS VAL INVIS VIS MIN 0200 LIRP 282215Z 10008KT 9999 SCT030 04/01 Q0993 NOSIG LKLN 282219Z AUTO 22004KT 5000 BR OVC069 M01/M01 Q0997 LIVM 282155Z AUTO VRB03KT //// 04/01 Q0994 LJPZ 282230Z AUTO VRB02KT 9999 SHRA SCT029/// BKN040/// BKN050/// 05/03 Q0993 LKPR 282230Z 22006KT 9000 SCT018 M03/M03 Q0996 NOSIG LDPL 282230Z 00000KT 9999 FEW027 SCT053 05/03 Q0993 LIVE 282155Z 03005KT CAVOK M05/M08 Q0991 RMK BKN BKN100 VIS MIN 9999 LSZR 282220Z AUTO 25003KT 210V290 9999 -SN BKN006 BKN065 01/01 Q0999 LDRI 282230Z 10005KT 060V140 9999 -RA FEW017 OVC030 04/03 Q0994 RETS LIPR 282220Z AUTO 24004KT 9999 NCD 02/00 Q0994 LIPI 282155Z 03006KT 9999 FEW010 SCT025 BKN080 05/02 Q0993 RMK BKN VIS MIN 9999 WIND THR06 03006KT WIND THR24 03004KT BLU LIVR 281755Z 29005KT 0100 -SN FZFG VV/// M07/M08 Q0983 RMK MON INVIS VIS MIN 0100 LIPQ 282220Z AUTO 08009KT 050V110 9999 RASN BKN016/// OVC059/// 05/03 Q0993 EDDR 282220Z VRB02KT 8000 FEW002 00/M00 Q1000 LFMY 282230Z AUTO 32011KT 280V340 CAVOK 04/00 Q1001 LOWS 282220Z AUTO 16003KT 3800 -SN FEW004 BKN006 M00/M00 Q0997 LSZS 282220Z AUTO VRB03KT 9999 -SN BKN047 M10/M13 Q0991 EBDT 282225Z AUTO 28007KT 6000 NCD 01/00 Q1003 WHT ETNS 282220Z AUTO 28003KT 0100 // ////// M01/M01 Q0998 /// EDTY 282220Z AUTO VRB02KT 6000 // FEW008/// BKN011/// BKN018/// M01/M01 Q0998 EINN 282230Z 15003KT 9999 FEW008 BKN013 08/07 Q1015 NOSIG EDGS 282220Z AUTO 31009KT 0700 R31/1500N VV/// M01/M01 Q0998 LSGS 282220Z AUTO 25010KT 220V290 9999 FEW007 SCT075 01/M01 Q0999 EISG 281900Z 00000KT 7000 SCT032 SCT060 06/06 Q1013 EKSB 282220Z AUTO 35006KT 9999 OVC015/// 04/03 Q0997 RERA ETAD 282241Z AUTO 31004KT 9999 SCT021 SCT070 BKN090 01/M02 A2954 RMK AO2 SLP010 TSNO $ LFST 282230Z AUTO 32006KT 9999 FEW024 SCT048 OVC058 03/01 Q1001 TEMPO 4000 -SNRA BKN012 EDDS 282220Z 28002KT 5000 BR BKN005 BKN012 00/M00 Q0999 EPSC 282230Z VRB01KT 3800 BR BKN005 OVC007 M00/M00 Q0997 LIVO 281755Z 00000KT 8000 BKN015 00/M01 Q0991 RMK BKN VIS MIN 4000SE LIMK 282155Z 31006KT CAVOK 03/M07 Q0992 RMK FEW FEW100 VAL NIL VIS MIN 9999 LIMF 282220Z 18003KT 120V280 CAVOK M01/M04 Q0994 LIPH 282150Z 33002KT 9999 SCT020 04/03 Q0993 LIVT 281755Z 00000KT 8000 -RA OVC020 08/06 Q0992 RMK OVC QUK / QUL / VIS MAR 8 KM VIS MIN 8000 LIPZ 282220Z 04002KT 9999 SCT020 04/03 Q0993 NOSIG EHVK 282225Z AUTO 28005KT 250V310 9999 OVC052 01/M01 Q1002 BLU EIWF 281800Z VRB01KT 9999 BKN008 06/05 Q1012 EDXW 282220Z AUTO 04008KT 9999 // FEW012/// BKN026/// 03/01 Q0998 ETOU 282156Z AUTO 30004KT 9999 OVC070 02/M02 A2953 RMK AO2 SLP009 T00181020 ETNT 282220Z 31004KT 9999 -RA BKN018 04/03 Q0997 WHT ETNW 282220Z AUTO 30007KT //// // ////// 03/02 Q0998 /// LOXZ 282050Z VRB01KT 3000 0300E BCFG FEW001ST BKN060SC M02/M02 Q0994 EHBK 282225Z AUTO 28005KT 230V310 9000 FEW045 01/00 Q1002 LSZH 282220Z 31003KT 280V360 2500 SHSN FEW003 BKN009 00/M00 Q0999 TEMPO 6000 NSW BKN015

METAR Messwerte

Klicken Sie auf einen Ort, um die 36h-Historie abzurufen

Ort
m ü. NN
Zeit Temperatur Taupunkt Rel.
Luftfeuchte
Luftdruck:
Altimeter
NN
Station
Wind in Beaufort
(Knoten)
Sichtweite
(Meter)
Wolken
(Meter über Grund)
Wettererscheinung
ALPNACH
444
So 28.11. 23:200-0100 %999
1002
947
Windstill Bedeckt (980)
Stark bewölkt (400)
Wolkig (61)
Regen/Schneefall (schwach)
Nebeldunst
ALTENBURG-NOBITZ
195
So 28.11. 23:200-193 %998
999
975
SW 2 (6)>= 10000Bedeckt (2000) 
ALTENSTADT/SCHON
760
So 28.11. 23:20-2-393 %997
1002
910
SW 2 (3)>= 10000  
ANNECY/MEYTHET
463
So 28.11. 23:3000100 %1001
1004
947
WSW 1 (1)3100Bedeckt (400)
Stark bewölkt (240)
Stark bewölkt (120)
Schneefall (schwach)
Nebeldunst
ASTURIAS/AVILES
134
So 28.11. 23:30121194 %1017
1017
1001
W 6 (23)
WSW - NNW
5000Stark bewölkt (610)
Stark bewölkt (430)
Leicht bewölkt (120)
Regen
AUGSBURG/MULHAUS
463
So 28.11. 23:20-1-1100 %998
1001
944
N 1 (2)3000Bedeckt (2200)
Stark bewölkt (1900)
Leicht bewölkt (1600)
 
AWG-1 SEA
50
So 28.11. 23:256-256 %999
999
993
NNW 6 (23)>= 10000Wolkig (1400)
Leicht bewölkt (1200)
 
BALE/MULHOUSE
271
So 28.11. 23:302193 %1000
1001
968
W 2 (6)>= 10000Stark bewölkt (1400)
Stark bewölkt (1200)
Stark bewölkt (850)
Regen (schwach)
Bald möglich: Schneefall (schwach)
BELFAST HARBOUR
5
So 28.11. 23:203-175 %1013
1013
1012
SO 2 (3)
O - S
>= 10000  
BELFAST/ALDERGRO
81
So 28.11. 23:200-193 %1013
1014
1003
Uml 1 (1)>= 10000  
BERGAMO/ORIO SER
237
So 28.11. 23:201093 %993
994
965
NO 2 (3)
N - O
>= 10000Nicht signifikant 
BERLIN/SCHONEFEL
48
So 28.11. 23:200-0100 %997
997
991
S 2 (4)
SSO - SW
4600Stark bewölkt (300)
Wolkig (30)
Nebeldunst
BERN/BELP
505
So 28.11. 23:201-186 %999
1002
940
WSW 3 (9)5000Stark bewölkt (1400)
Stark bewölkt (1200)
Wolkig (1100)
Schneefall (schwach)
BIERSET/LIEGE (C
178
So 28.11. 23:2000100 %1003
1004
982
WNW 2 (6)2500Stark bewölkt (61)Nebeldunst
BOLOGNA/BORGO (A
42
So 28.11. 23:203-081 %994
994
989
SW 3 (7)>= 10000Nicht signifikant 
BOLZANO(CIV/IT-A
241
So 28.11. 22:503187 %994
995
966
Windstill>= 10000Stark bewölkt (3000) 
BRAUNSCHWEIG
88
So 28.11. 23:202193 %998
998
988
W 2 (6)>= 10000Bedeckt (700)
Stark bewölkt (550)
Wolkig (340)
 
BREMEN
5
So 28.11. 23:203293 %997
997
996
W 2 (6)>= 10000Stark bewölkt (240) 
BRESCIA/MONTICHI
109
So 28.11. 23:2011100 %994
995
981
Uml 1 (2)   
BUCKEBURG(GER-AR
78
So 28.11. 23:2022100 %998
998
989
W 3 (7)>= 10000Stark bewölkt (910)
Wolkig (240)
Leicht bewölkt (150)
 
BUECHEL
486
So 28.11. 23:200-193 %999
1002
943
NNW 3 (9)>= 10000  
BUOCHS
450
So 28.11. 23:201093 %999
1002
947
Uml 1 (2)7000Stark bewölkt (790)
Stark bewölkt (700)
Schneefall (schwach)
CANNES/MANDELIEU
9
So 28.11. 23:302-369 %994
994
993
NNW 1 (1)>= 10000Nicht signifikant 
CAPE MELE
221
So 28.11. 22:559-440 %993
993
967
NNO 3 (10)>= 10000Nicht signifikant 
CASEMENT (MIL)
93
So 28.11. 23:0011100 %1013
1014
1002
WSW 2 (4)>= 10000Stark bewölkt (4900)
Leicht bewölkt (300)
 
CELLE (GER-ARMY)
52
So 28.11. 23:203293 %998
998
992
WSW 2 (4)4500Stark bewölkt (370)
Wolkig (240)
Nebeldunst
CERVIA (IT-AFB)
10
So 28.11. 22:552193 %994
994
993
SW 2 (5)>= 10000Nicht signifikant 
CHAMBERY/AIX BAI
239
So 28.11. 23:3011100 %1002
1003
974
O 1 (2)6000Bedeckt (790)
Stark bewölkt (550)
Leicht bewölkt (270)
Schnee/Regen (schwach)
CIMONE MOUNTAIN
2173
So 28.11. 23:151093 %989
1001
758
W 5 (19) - 7 (30)
SSW - NNW
   
COLMAR HOUSSEN
191
So 28.11. 23:302193 %1001
1002
978
Uml 1 (2)>= 10000Bedeckt (1500)
Stark bewölkt (1300)
Regen (schwach)
CORK ARPT/CORCAI
162
So 28.11. 23:3077100 %1014
1015
995
N 2 (6)>= 10000Stark bewölkt (730)
Wolkig (210)
 
CULDROSE (NAVY)
82
So 28.11. 22:507693 %1011
1011
1001
N 2 (3)>= 10000Stark bewölkt (1200) 
DEELEN RNLAFB
52
So 28.11. 23:25-2-2100 %1002
1002
996
Uml 1 (1)>= 10000Stark bewölkt (1200)
Stark bewölkt (1100)
Leicht bewölkt (0)
 
DIJON/LONGVIC(FA
227
So 28.11. 23:302087 %1003
1004
976
NNW 3 (7)>= 10000Bedeckt (1100)
Stark bewölkt (790)
Stark bewölkt (400)
Regen (schwach)
DOLE TAVAUX
196
So 28.11. 23:302193 %1002
1003
979
NW 3 (9)>= 10000Stark bewölkt (700)
Stark bewölkt (400)
Stark bewölkt (240)
Schnee/Regen (schwach)
DORTMUND/WICKEDE
127
So 28.11. 23:202193 %1000
1001
985
W 3 (7)>= 10000Bedeckt (1400)
Stark bewölkt (1200)
Stark bewölkt (150)
 
DRESDEN/KLOTZSCH
226
So 28.11. 23:200-193 %997
998
970
W 2 (3)>= 10000Wolkig (550) 
DUBENDORF
448
So 28.11. 23:200-0100 %999
1002
947
WNW 2 (3)  Schneefall (schwach)
DUBLIN AIRPORT
85
So 28.11. 23:3022100 %1013
1013
1003
WNW 3 (7)>= 10000Stark bewölkt (4900)
Wolkig (2700)
Leicht bewölkt (300)
 
DUESSELDORF
44
So 28.11. 23:200-0100 %1001
1001
996
Uml 1 (2)8000Wolkig (210) 
EINDHOVEN RNLAFB
22
So 28.11. 23:250-193 %1003
1003
1000
W 2 (4)
SW - NW
>= 10000Wolkig (1900)
Wolkig (1700)
 
EMDEN-KOENIGSPO
5
So 28.11. 23:204287 %999
999
998
NNW 2 (4)
WNW - N
>= 10000Stark bewölkt (1900)
Stark bewölkt (910)
Leicht bewölkt (550)
 
EMMEN
427
So 28.11. 23:202087 %999
1001
949
Uml 1 (2) Bedeckt (2200)
Wolkig (1700)
Leicht bewölkt (940)
Regen (schwach)
EPINAL/MIRECOURT
330
So 28.11. 23:301-186 %1001
1003
962
WNW 3 (7)>= 10000Stark bewölkt (3000)
Wolkig (2000)
Leicht bewölkt (640)
 
ERFURT/BINDERSLE
323
So 28.11. 23:20-0-193 %998
1000
960
WSW 2 (6)>= 10000Leicht bewölkt (700)Schneefall (schwach)
FALCONARA (IT-AF
10
So 28.11. 23:205175 %995
995
994
S 2 (3)>= 10000  
FASSBERG (GER-AF
88
So 28.11. 23:2022100 %997
997
987
WSW 2 (4)4000Stark bewölkt (61)Nebeldunst
FERRARA (AUT)
10
So 28.11. 18:5555100 %992
992
991
SSW 1 (2)>= 10000Nicht signifikant 
FIRENZE/PERETOLA
38
So 28.11. 23:204287 %995
995
991
S 2 (5)>= 10000Nicht signifikant 
FORLI (CIV/IT-AF
32
So 28.11. 22:501-469 %994
994
990
Uml 2 (3)>= 10000Nicht signifikant 
FRANKFURT MAIN A
113
So 28.11. 23:201093 %1000
1001
987
W 2 (4)>= 10000Nicht signifikant 
FRIEDRICHSHAFEN
424
So 28.11. 23:20-0-0100 %998
1001
949
Uml 1 (2)>= 10000Bedeckt (1200)
Stark bewölkt (1100)
Wolkig (940)
 
FRITZLAR (GER-AR
181
So 28.11. 23:201093 %999
1000
978
Uml 1 (1)>= 10000Stark bewölkt (1600)
Stark bewölkt (1200)
Leicht bewölkt (520)
Nieselregen (schwach)
FRONTONE
574
So 28.11. 22:554-360 %993
995
927
SSO 3 (8)>= 10000Wolkig (2400)
Leicht bewölkt (760)
 
GEILENKIRCHEN(NA
98
So 28.11. 22:5011100 %1002
1003
990
W 2 (6)8000Leicht bewölkt (1300) 
GEMINI WIND FARM
10
So 28.11. 23:256065 %999
999
998
NNW 7 (28)>= 10000Stark bewölkt (1200)
Wolkig (910)
Leicht bewölkt (580)
 
GENEVA/COINTRIN
416
So 28.11. 23:200-0100 %1001
1004
952
WSW 2 (4)9000Stark bewölkt (1200)
Wolkig (150)
Leicht bewölkt (61)
Schneefall (schwach)
Bald möglich: Schneefall
GENOVA/SESTRI
3
So 28.11. 23:207-445 %994
994
994
NO 2 (5)
N - ONO
>= 10000Nicht signifikant 
GHEDI (IT-AFB)
92
So 28.11. 22:5522100 %992
992
981
SSW 1 (2)>= 10000Nicht signifikant 
GRAFENWOEHR
415
So 28.11. 23:420-193 %997
1000
949
WNW 2 (3)>= 10000Bedeckt (1800)
Leicht bewölkt (550)
 
GRENCHEN
430
So 28.11. 23:202-180 %999
1001
949
WSW 3 (8)>= 10000 Schneefall (schwach)
GRENOBLE/ST. GEO
386
So 28.11. 23:3000100 %1002
1004
957
W 2 (6)3800Bedeckt (370)
Wolkig (150)
Schneefall (schwach)
Nebeldunst
GRONINGEN/EELDE
4
So 28.11. 23:252-275 %1000
1000
1000
WNW 3 (7)
W - NNW
>= 10000Nicht signifikant 
HAHN
498
So 28.11. 23:20-0-0100 %999
1002
941
W 2 (6)6000Stark bewölkt (61)Schneefall (schwach)
HAMBURG/FINKENWE
13
So 28.11. 23:2022100 %997
997
995
NO 2 (3)5000Bedeckt (210) 
HAMBURG/FUHLSBUT
16
So 28.11. 23:20-1-1100 %998
998
996
Uml 1 (2)350 Nebel
HANNOVER
54
So 28.11. 23:203293 %998
998
992
W 2 (4)
WSW - NW
>= 10000Stark bewölkt (210) 
HOF
568
So 28.11. 23:20-2-393 %996
1000
931
Uml 1 (2)5000Stark bewölkt (1600)
Wolkig (1300)
Leicht bewölkt (910)
 
HOHENFELS (USA-A
442
So 28.11. 23:41-0-286 %998
1001
947
Windstill9000Bedeckt (2000)
Stark bewölkt (460)
Nebeldunst
HOHN (GER-AFB)
17
So 28.11. 23:20-1-1100 %997
997
995
W 2 (3)150  
HOLZDORF
79
So 28.11. 23:20-4-4100 %997
998
988
SSO 1 (1)3500Stark bewölkt (1800)
Wolkig (700)
Nebel-Bänke
Nebeldunst
HYERES/LE PALYVE
4
So 28.11. 23:307-253 %997
997
997
WNW 4 (15)
WSW - NNW
Bald Übergang zu:
WNW 4 (15) - 7 (30)
>= 10000Nicht signifikant 
ILLESHEIM (USA-A
325
So 28.11. 22:56-1-1100 %999
1001
961
WSW 2 (3)6000Stark bewölkt (2300)
Stark bewölkt (790)
Stark bewölkt (790)
Wolkig (430)
Wolkig (270)
Nebeldunst
INGOLSTADT(GER-M
370
So 28.11. 23:200-0100 %998
1000
955
NW 1 (2)8000  
INNSBRUCK AIRPOR
581
So 28.11. 23:20-0-193 %997
1001
930
Uml 1 (2)5000Stark bewölkt (610)
Leicht bewölkt (120)
Schneefall (schwach)
ISTRANA (IT-AFB)
41
So 28.11. 22:555493 %992
992
987
Windstill>= 10000Stark bewölkt (760) 
KARLOVY VARY
604
So 28.11. 23:00-1-293 %995
999
926
WNW 2 (3)
WSW - NW
6000Wolkig (550)
Wolkig (120)
Schneefall (schwach)
KARLSRUHE/BADEN
124
So 28.11. 23:202193 %1000
1001
985
NW 2 (3)
W - N
8000Bedeckt (910)
Stark bewölkt (400)
Wolkig (270)
Regen (schwach)
KASSEL/CALDEN
285
So 28.11. 19:501-186 %997
999
964
WSW 2 (4)>= 10000Stark bewölkt (730)
Leicht bewölkt (520)
 
KATTERBACH (USA-
467
So 28.11. 23:31-1-1100 %998
1001
944
Windstill8000Stark bewölkt (430)
Wolkig (150)
Nebeldunst
KBELY
286
So 28.11. 23:00-0-286 %996
998
963
NW 2 (3)>= 10000Wolkig (910) 
KERRY ARPT
34
So 28.11. 20:3010993 %1014
1014
1010
WNW 2 (4)
WSW - NNW
>= 10000Wolkig (490) 
KIEL/HOLTENAU CI
31
So 28.11. 23:200-0100 %997
997
993
W 3 (7)1200  
KLAGENFURT(CIV/M
441
So 28.11. 23:201093 %994
996
943
W 2 (3)
SW - NW
4500Stark bewölkt (210)
Wolkig (91)
Schneefall (schwach)
Nebeldunst
Bald möglich: Schneefall
KLEINE-BROGEL(BA
64
So 28.11. 23:25-0-193 %1003
1003
995
W 2 (5)8000  
KOELN/BONN
99
So 28.11. 23:203187 %1001
1001
989
NW 3 (7)>= 10000Stark bewölkt (760)
Stark bewölkt (340)
Leicht bewölkt (210)
 
LA CORUNA/ALVEDR
103
So 28.11. 23:30111094 %1021
1021
1009
NNW 4 (12) - 6 (23)
W - N
8000Stark bewölkt (850)
Leicht bewölkt (270)
Nieselregen (schwach)
Bald möglich: Regen
LAAGE
40
So 28.11. 23:2022100 %997
997
992
SW 1 (2)9000Stark bewölkt (240)
Wolkig (120)
 
LAUPHEIM (GER-AR
549
So 28.11. 23:20-1-293 %998
1002
935
SSW 1 (2)>= 10000Stark bewölkt (910) 
LE LUC/LE CANNET
78
So 28.11. 23:306-256 %996
996
987
WNW 5 (18) - 7 (31)>= 10000Nicht signifikant 
LECHFELD (GER-AF
562
So 28.11. 23:20-1-293 %997
1001
932
Uml 2 (3)>= 10000Stark bewölkt (1800)
Leicht bewölkt (910)
 
LEEUWARDEN RNLAF
2
So 28.11. 23:254-170 %1001
1001
1001
NNW 4 (13)>= 10000Stark bewölkt (1700)
Stark bewölkt (1500)
Leicht bewölkt (1400)
 
LEIPZIG/SCHKEUDI
149
So 28.11. 23:20-0-286 %997
998
979
WSW 2 (6)>= 10000Leicht bewölkt (940) 
LELYSTAD
-6
So 28.11. 23:250-286 %1002
1002
1003
W 2 (6)>= 10000Nicht signifikant 
LES EPLATURES
1027
So 28.11. 23:20-3-586 %998
1006
882
WNW 2 (3)
SSW - N
>= 10000Stark bewölkt (180)Schneefall (schwach)
LEVALDIGI
380
So 28.11. 23:201-564 %994
996
950
WSW 2 (5)>= 10000Stark bewölkt (6100) 
LINZ (CIV/MIL)
313
So 28.11. 23:20-1-1100 %998
1000
961
Uml 1 (2)5000Stark bewölkt (2100)
Wolkig (91)
Leicht bewölkt (61)
Nebeldunst
LJUBLJANA/BRNIK
385
So 28.11. 23:3000100 %993
995
948
WNW 2 (4)
W - NNW
1500Bedeckt (460)
Wolkig (91)
Schneefall (schwach)
Nebeldunst
LOCARNO
600
So 28.11. 23:20-1-386 %995
999
926
NO 2 (4)
N - O
   
LUEBECK/BLANKENS
16
So 28.11. 23:2000100 %998
998
996
W 2 (3)
WSW - WNW
2300Stark bewölkt (91)
Wolkig (0)
 
LUGANO (PVT/AUT)
276
So 28.11. 23:20-1-293 %995
997
963
Uml 1 (1)>= 10000  
LUXEMBOURG (AUT)
379
So 28.11. 23:201-093 %1001
1003
957
NNW 3 (8)8000Stark bewölkt (910)
Wolkig (730)
Graupel-Schauer (schwach)
LUXEUIL/ST. SAUV
273
So 28.11. 23:301093 %1001
1003
969
WNW 2 (4)7000  
LYON/SATOLAS
240
So 28.11. 23:302193 %1003
1004
975
NW 3 (10)>= 10000Stark bewölkt (790)
Stark bewölkt (270)
 
MANNHEIM
100
So 28.11. 19:503293 %999
999
987
NNW 2 (4)
W - NNO
>= 10000Bedeckt (460)
Wolkig (240)
 
MARSEILLE/MARIGN
36
So 28.11. 23:305175 %1001
1001
997
NW 4 (11)>= 10000Nicht signifikant 
MEIERWIK
33
So 28.11. 23:202193 %997
997
993
NNW 2 (6)>= 10000  
MEIRINGEN
577
So 28.11. 23:2000100 %998
1002
931
NW 3 (10)
W - N
 Bedeckt (460)
Stark bewölkt (340)
Leicht bewölkt (270)
Schneefall (schwach)
MEMMINGEN ALLGAU
633
So 28.11. 23:20-2-393 %997
1002
924
W 2 (5)>= 10000Stark bewölkt (2500)
Wolkig (1200)
 
MEPPEN
21
So 28.11. 23:2011100 %999
999
997
SW 2 (5)   
METZ-NANCY-LORRA
264
So 28.11. 23:301093 %1002
1004
971
NW 2 (5)8000Bedeckt (2000)
Stark bewölkt (610)
 Bald möglich: Schneefall (schwach)
MILANO/LINATE
103
So 28.11. 23:204-265 %994
994
982
NW 2 (5)
W - NNW
>= 10000  
MILANO/MALPENSA
211
So 28.11. 23:20-0-193 %994
995
969
N 3 (8)>= 10000Nicht signifikant 
MONCHENGLADBACH
38
So 28.11. 23:201093 %1002
1002
997
W 2 (4)
WSW - WNW
>= 10000  
MUENSTER/OSNABRU
52
So 28.11. 23:2011100 %1000
1000
994
WSW 2 (4)>= 10000Leicht bewölkt (910) 
MUNICH-FLUGHAFEN
447
So 28.11. 23:20-0-193 %998
1001
946
W 2 (3)>= 10000Wolkig (1300)Schneefall (schwach)
NANCY/ESSEY
217
So 28.11. 23:302087 %1002
1003
976
W 2 (4)
WSW - NW
>= 10000Nicht signifikant 
NANCY/OCHEY (FAF
350
So 28.11. 23:3000100 %1001
1003
960
NW 2 (6)5000Bedeckt (1800)
Stark bewölkt (640)
Wolkig (300)
Nebeldunst
NEUBURG/DONAU
387
So 28.11. 23:20-1-1100 %998
1001
953
NW 1 (1)6000Stark bewölkt (2100)
Leicht bewölkt (610)
 
NICE/COTE D'AZUR
10
So 28.11. 23:308-636 %994
994
993
N 3 (8)
NNW - NO
>= 10000Nicht signifikant 
NIEDERRHEIN
32
So 28.11. 23:200-193 %1002
1002
998
WNW 2 (4)>= 10000Nicht signifikant 
NIEDERSTETTEN (G
473
So 28.11. 23:20-1-1100 %998
1001
943
WNW 2 (5)2500 Nebeldunst
NOERVENICH (GAF)
135
So 28.11. 23:202193 %1001
1002
985
W 3 (7)>= 10000Stark bewölkt (300)
Wolkig (150)
 
NORDHOLZ (GER-NA
31
So 28.11. 23:2011100 %998
998
994
ONO 3 (7)500Stark bewölkt (30)Nebel
NUERNBERG
312
So 28.11. 23:2000100 %998
1000
962
Uml 1 (2)8000Stark bewölkt (490)
Wolkig (240)
 
OBERPFAFFENHOFEN
600
So 28.11. 23:20-1-293 %997
1001
928
SW 2 (3)>= 10000Bedeckt (2300)
Wolkig (1700)
Wolkig (340)
 
PADERBORN/LIPPST
213
So 28.11. 23:201093 %999
1000
974
W 2 (6)
SSW - NNW
7000Bedeckt (120)Nieselregen
PAGANELLA MOUNTA
2129
So 28.11. 22:55-11-1292 %986
1010
760
N 6 (25)>= 10000Bedeckt (1500) 
PARMA
50
So 28.11. 22:502087 %994
994
988
SW 2 (5)8000Nicht signifikant 
PAYERNE (MIL/AUT
491
So 28.11. 23:203-270 %1000
1002
943
WNW 2 (4)
W - NNW
 Bedeckt (1000)
Wolkig (850)
 
PERUGIA
205
So 28.11. 23:206487 %996
997
972
SSO 2 (5)
OSO - S
>= 10000Stark bewölkt (1600)
Leicht bewölkt (1100)
Nieselregen/Regen (schwach)
PIACENZA (IT-AFB
138
So 28.11. 18:5555100 %992
993
976
WSW 2 (3)>= 10000Nicht signifikant 
PIAN ROSA (MTN T
3488
So 28.11. 22:55-20-2377 %984
1043
638
NO 6 (26)200 Schneefall (schwach)
Nebel
PISA (CIV/IT-AFB
2
So 28.11. 23:154181 %993
993
993
O 3 (8)>= 10000Wolkig (910) 
PLZEN LINE
362
So 28.11. 23:19-1-1100 %997
999
955
SW 2 (4)5000Bedeckt (2100)Nebeldunst
POINT MARINA/RAV
6
So 28.11. 22:554181 %994
994
993
Uml 2 (3)   
PORTOROZ
2
So 28.11. 23:305387 %993
993
993
Uml 1 (2)>= 10000Stark bewölkt (1500)
Stark bewölkt (1200)
Wolkig (880)
Regen-Schauer
PRAGUE/RUZYNE
365
So 28.11. 23:30-3-3100 %996
999
954
SW 2 (6)9000Wolkig (550) 
PULA
63
So 28.11. 23:305387 %993
993
986
Windstill>= 10000Wolkig (1600)
Leicht bewölkt (820)
 
RESIA PASS
1800
So 28.11. 22:55-5-879 %991
1006
796
NNO 2 (5)>= 10000Nicht signifikant 
RHEINECK/ALTENRH
398
So 28.11. 23:2011100 %999
1001
953
WSW 2 (3)
SSW - WNW
>= 10000Stark bewölkt (2000)
Stark bewölkt (180)
Schneefall (schwach)
RIJEKA/OMISALJ
85
So 28.11. 23:304393 %994
994
984
O 2 (5)
ONO - SO
>= 10000Bedeckt (910)
Leicht bewölkt (520)
Regen (schwach)
RIMINI (CIV/IT-A
13
So 28.11. 23:202087 %994
994
992
WSW 2 (4)>= 10000  
RIVOLTO (IT-AFB)
53
So 28.11. 22:555281 %993
993
987
NNO 2 (6)>= 10000Stark bewölkt (2400)
Wolkig (760)
Leicht bewölkt (300)
 
ROLLE PASS
2006
So 28.11. 18:55-7-893 %983
1002
770
WNW 2 (5)100 Schneefall (schwach)
Nebel
RONCHI LEGIONARI
12
So 28.11. 23:205387 %993
993
992
O 3 (9)
NO - OSO
>= 10000Bedeckt (1800)
Stark bewölkt (490)
Regen/Schneefall
SAARBRUECKEN
320
So 28.11. 23:200-0100 %1000
1002
963
Uml 1 (2)8000Leicht bewölkt (61) 
SALON (FAFB)
60
So 28.11. 23:304075 %1001
1001
994
NW 4 (11)
W - NNW
>= 10000Nicht signifikant 
SALZBURG AIRPORT
450
So 28.11. 23:20-0-0100 %997
1000
945
SSO 2 (3)3800Stark bewölkt (180)
Leicht bewölkt (120)
Schneefall (schwach)
SAMEDAN
1706
So 28.11. 23:20-10-1379 %991
1010
806
Uml 2 (3)>= 10000Stark bewölkt (1400)Schneefall (schwach)
SCHAFFEN
54
So 28.11. 23:251093 %1003
1003
997
W 3 (7)6000  
SCHLESWIG(GER-NA
25
So 28.11. 23:20-1-1100 %998
998
995
W 2 (3)100  
SCHWAEBISCH HALL
400
So 28.11. 23:20-1-1100 %998
1001
951
Uml 1 (2)6000Stark bewölkt (550)
Stark bewölkt (340)
Leicht bewölkt (240)
 
SHANNON AIRPORT
20
So 28.11. 23:308793 %1015
1015
1013
SSO 2 (3)>= 10000Stark bewölkt (400)
Leicht bewölkt (240)
 
SIEGERLAND
602
So 28.11. 23:20-1-1100 %998
1002
929
NW 3 (9)700  
SION (MIL/CIV/AU
481
So 28.11. 23:201-186 %999
1002
943
WSW 3 (10)
SW - WNW
>= 10000Wolkig (2300)
Leicht bewölkt (210)
 
SLIGO ARPT
3
So 28.11. 20:0066100 %1013
1013
1013
Windstill7000Wolkig (1800)
Wolkig (980)
 
SONDERBORG AIRPO
23
So 28.11. 23:204393 %997
997
994
N 2 (6)>= 10000Bedeckt (460) 
SPANGDAHLEM (USA
365
So 28.11. 23:411-280 %1000
1002
957
NW 2 (4)>= 10000Stark bewölkt (2700)
Wolkig (2100)
Wolkig (640)
 
STRASBOURG/ENTZH
154
So 28.11. 23:303187 %1001
1002
983
NW 2 (6)>= 10000Bedeckt (1800)
Wolkig (1500)
Leicht bewölkt (730)
 Bald möglich: Schnee/Regen (schwach)
STUTTGART/ECHTER
419
So 28.11. 23:200-0100 %999
1002
950
W 1 (2)5000Stark bewölkt (370)
Stark bewölkt (150)
Nebeldunst
SZCZECIN/GOLENIO
3
So 28.11. 23:30-0-0100 %997
997
997
Uml 1 (1)3800Bedeckt (210)
Stark bewölkt (150)
Nebeldunst
TARVISIO
778
So 28.11. 18:550-193 %991
996
903
Windstill8000Stark bewölkt (460) 
TORINO/BRIC CROC
710
So 28.11. 22:553-748 %992
995
911
NW 2 (6)>= 10000Nicht signifikant 
TORINO/CASELLE
287
So 28.11. 23:20-1-480 %994
996
961
S 2 (3)
OSO - W
>= 10000Nicht signifikant 
TREVISO(CIV/IT-A
23
So 28.11. 22:504393 %993
993
990
NNW 1 (2)>= 10000Wolkig (610) 
TRIESTE
20
So 28.11. 18:558687 %992
992
990
Windstill8000Bedeckt (610)Regen (schwach)
VENEZIA/TESSERA
6
So 28.11. 23:204393 %993
993
992
NO 1 (2)>= 10000Wolkig (610) 
VOLKEL RNLAFB
21
So 28.11. 23:251-186 %1002
1002
1000
W 2 (5)
WSW - NW
>= 10000Bedeckt (1600) 
WATERFORD ARPT
36
So 28.11. 19:006593 %1012
1012
1008
Uml 1 (1)>= 10000Stark bewölkt (240) 
WESTERLAND/SYLT
20
So 28.11. 23:203187 %998
998
996
NO 3 (8)>= 10000Stark bewölkt (790)
Leicht bewölkt (370)
 
WIESBADEN (USA-A
141
So 28.11. 22:562-275 %1000
1001
983
WNW 2 (4)>= 10000Bedeckt (2100) 
WITTMUNDHAVEN(GA
12
So 28.11. 23:204393 %997
997
996
NW 2 (4)>= 10000Stark bewölkt (550)Regen (schwach)
WUNSTORF (GER-AF
70
So 28.11. 23:203293 %998
998
990
WNW 3 (7)   
ZELTWEG (MIL)
682
So 28.11. 21:50-2-2100 %994
999
916
Uml 1 (1)3000Stark bewölkt (1800)
Leicht bewölkt (30)
Nebel-Bänke
ZUID-LIMBURG/BEE
116
So 28.11. 23:251093 %1002
1003
988
W 2 (5)
SW - NW
9000Leicht bewölkt (1400) 
ZURICH-KLOTEN (A
432
So 28.11. 23:200-0100 %999
1002
949
NW 2 (3)
W - N
2500Stark bewölkt (270)
Leicht bewölkt (91)
Schnee-Schauer

Altimeter: Einstellung am Altimeter (Höhenmesser), die Höhe 0 muss auf diesen Luftdruckwert zeigen, damit das Gerät die Stationshöhe richtig anzeigt.

NN: Luftdruck reduziert auf "Normal Null", auf Meereshöhe, dieser von der Temperatur abhängige Wert wird bisweilen unkorrekt einfach als "Luftdruck" bezeichnet. Eigentlich nur eine fiktive Größe, die es erlaubt, Stationen auf unterschiedlichen Höhen miteinander zu vergleichen.

Station: Realer Luftdruck an der Station.